Time;durP1;ratioP1;P1;durP2;ratioP2;P2;SDS_P1;SDS_P2;PMS_P1;PMS_P2;Temp;Humidity;BMP_temperature;BMP_pressure;BME280_temperature;BME280_humidity;BME280_pressure;Samples;Min_cycle;Max_cycle;Signal;HPM_P1;HPM_P2
2022/10/22 00:00:01;;;;;;;11.00;5.70;;;;;;;8.95;91.34;98778.34;4501378;31;20435;-69
2022/10/22 00:02:30;;;;;;;9.23;5.30;;;;;;;8.97;91.44;98781.63;4501547;31;20104;-68
2022/10/22 00:04:58;;;;;;;8.05;4.93;;;;;;;8.94;92.01;98771.44;4485724;31;20084;-69
2022/10/22 00:07:25;;;;;;;11.12;5.78;;;;;;;8.98;91.95;98767.63;4490501;31;20235;-68
2022/10/22 00:09:52;;;;;;;11.25;6.12;;;;;;;8.97;91.50;98771.19;4501582;31;20175;-69
2022/10/22 00:12:19;;;;;;;11.43;5.20;;;;;;;8.99;91.97;98778.91;4501384;31;20116;-69
2022/10/22 00:14:47;;;;;;;10.90;5.53;;;;;;;9.01;92.34;98774.41;4501818;31;20088;-68
2022/10/22 00:17:14;;;;;;;10.73;5.37;;;;;;;8.99;92.16;98771.91;4501324;31;20131;-68
2022/10/22 00:19:41;;;;;;;11.65;5.10;;;;;;;8.98;92.29;98772.84;4501436;31;20433;-69
2022/10/22 00:22:11;;;;;;;12.73;5.70;;;;;;;8.99;92.44;98774.53;4501439;31;20085;-69
2022/10/22 00:24:38;;;;;;;14.73;5.90;;;;;;;8.96;92.35;98774.78;4501318;31;20156;-68
2022/10/22 00:27:07;;;;;;;10.18;5.40;;;;;;;8.97;92.41;98768.56;4501224;31;20092;-68
2022/10/22 00:29:34;;;;;;;16.60;6.53;;;;;;;8.98;92.49;98772.84;4501167;31;20100;-69
2022/10/22 00:32:02;;;;;;;13.50;6.30;;;;;;;8.95;92.53;98767.88;4501527;31;20516;-68
2022/10/22 00:34:29;;;;;;;10.55;5.95;;;;;;;8.96;92.96;98769.53;4501483;31;20160;-68
2022/10/22 00:36:56;;;;;;;14.13;5.70;;;;;;;8.99;92.31;98769.28;4500504;31;20570;-69
2022/10/22 00:39:25;;;;;;;16.42;6.03;;;;;;;8.98;92.64;98767.63;4501187;31;20100;-68
2022/10/22 00:41:54;;;;;;;12.05;6.43;;;;;;;8.96;92.85;98756.47;4499970;31;20818;-68
2022/10/22 00:44:59;;;;;;;11.02;6.15;;;;;;;8.98;92.65;98764.19;4501735;31;20100;-68
2022/10/22 00:47:29;;;;;;;15.88;6.45;;;;;;;9.00;92.33;98759.66;4500196;31;20160;-68
2022/10/22 00:49:57;;;;;;;13.77;6.25;;;;;;;9.01;92.58;98754.31;4501264;31;20151;-69
2022/10/22 00:52:25;;;;;;;12.02;5.87;;;;;;;8.98;92.65;98759.78;4499861;31;20104;-69
2022/10/22 00:54:52;;;;;;;12.88;6.90;;;;;;;9.00;92.45;98754.44;4501215;31;20100;-68
2022/10/22 00:57:19;;;;;;;20.12;7.00;;;;;;;8.98;92.65;98757.19;4501267;31;20461;-68
2022/10/22 00:59:47;;;;;;;13.50;6.07;;;;;;;8.93;93.31;98755.88;4501135;31;20466;-69
2022/10/22 01:02:15;;;;;;;12.95;6.32;;;;;;;8.94;93.59;98757.56;4499653;31;20381;-68
2022/10/22 01:04:42;;;;;;;16.00;7.28;;;;;;;8.98;93.26;98748.53;4487082;31;20155;-68
2022/10/22 01:07:18;;;;;;;16.55;7.47;;;;;;;8.90;93.54;98754.34;4488343;31;20477;-69
2022/10/22 01:10:02;;;;;;;15.70;6.95;;;;;;;8.84;94.07;98765.31;4501211;31;20104;-68
2022/10/22 01:12:44;;;;;;;15.30;6.70;;;;;;;8.83;94.12;98758.44;4501198;31;20081;-68
2022/10/22 01:15:44;;;;;;;18.48;6.97;;;;;;;8.83;93.74;98761.06;4500046;31;20126;-68
2022/10/22 01:18:47;;;;;;;22.80;7.68;;;;;;;8.80;94.23;98759.53;4500009;31;20115;-68
2022/10/22 01:21:33;;;;;;;13.88;5.62;;;;;;;8.75;94.67;98760.84;4423665;32;20163;-69
2022/10/22 01:24:18;;;;;;;12.30;5.47;;;;;;;8.78;94.50;98765.81;4423474;32;20109;-68
2022/10/22 01:26:55;;;;;;;9.02;5.03;;;;;;;8.75;94.42;98756.47;4423397;32;20166;-68
2022/10/22 01:29:34;;;;;;;11.15;5.40;;;;;;;8.73;95.12;98758.34;4423762;32;20524;-69
2022/10/22 01:32:15;;;;;;;9.77;5.03;;;;;;;8.80;95.43;98756.09;4436385;32;20341;-69
2022/10/22 01:34:47;;;;;;;9.10;5.10;;;;;;;8.70;96.26;98772.53;4436247;32;20123;-68
2022/10/22 01:37:16;;;;;;;12.10;5.20;;;;;;;8.66;96.82;98776.31;4423627;32;20475;-68
2022/10/22 01:39:45;;;;;;;9.60;5.15;;;;;;;8.67;96.83;98764.09;4423424;32;20173;-68
2022/10/22 01:42:13;;;;;;;14.90;5.43;;;;;;;8.68;97.38;98770.97;4423450;32;20622;-68
2022/10/22 01:44:41;;;;;;;7.85;5.18;;;;;;;8.65;98.13;98766.00;4435893;32;20205;-68
2022/10/22 01:47:26;;;;;;;11.10;5.62;;;;;;;8.65;98.20;98766.00;4436043;32;20112;-69
2022/10/22 01:50:14;;;;;;;13.65;5.50;;;;;;;8.67;98.26;98764.09;4435836;32;20215;-69
2022/10/22 01:53:04;;;;;;;9.85;5.30;;;;;;;8.68;98.59;98750.09;4436070;32;20077;-69
2022/10/22 01:55:41;;;;;;;10.82;5.75;;;;;;;8.66;99.64;98762.41;4435905;32;20133;-69
2022/10/22 01:58:33;;;;;;;11.48;5.43;;;;;;;8.64;100.00;98767.75;4459998;31;20169;-69
2022/10/22 02:01:32;;;;;;;11.20;5.72;;;;;;;8.53;100.00;98762.59;4500393;31;20133;-69
2022/10/22 02:04:38;;;;;;;11.23;5.10;;;;;;;8.53;100.00;98750.34;4426723;32;20128;-69
2022/10/22 02:07:09;;;;;;;9.70;5.50;;;;;;;8.53;100.00;98731.25;4423240;32;20105;-69
2022/10/22 02:09:37;;;;;;;12.57;6.32;;;;;;;8.57;100.00;98732.69;4435815;32;20252;-68
2022/10/22 02:12:05;;;;;;;12.65;6.90;;;;;;;8.55;100.00;98733.75;4435816;32;20437;-68
2022/10/22 02:14:35;;;;;;;10.45;5.97;;;;;;;8.42;100.00;98733.88;4423037;32;20515;-68
2022/10/22 02:17:02;;;;;;;11.18;6.43;;;;;;;8.38;100.00;98727.25;4423031;32;20161;-68
2022/10/22 02:19:37;;;;;;;9.00;5.47;;;;;;;8.24;100.00;98725.78;4423042;32;20656;-68
2022/10/22 02:22:05;;;;;;;11.60;5.87;;;;;;;8.23;100.00;98730.16;4435810;32;20113;-68
2022/10/22 02:24:32;;;;;;;12.45;6.28;;;;;;;8.19;100.00;98739.19;4435652;32;20129;-68
2022/10/22 02:27:17;;;;;;;9.68;6.12;;;;;;;8.26;100.00;98732.50;4435269;32;20465;-68
2022/10/22 02:29:56;;;;;;;9.50;5.90;;;;;;;8.30;100.00;98738.31;4435558;32;20097;-68
2022/10/22 02:32:25;;;;;;;14.25;5.93;;;;;;;8.32;100.00;98741.63;4435612;32;20230;-68
2022/10/22 02:34:54;;;;;;;11.45;6.28;;;;;;;8.32;100.00;98737.22;4435679;32;20605;-69
2022/10/22 02:37:22;;;;;;;12.57;6.03;;;;;;;8.29;100.00;98753.13;4435656;32;20094;-68
2022/10/22 02:39:50;;;;;;;10.57;5.65;;;;;;;8.30;100.00;98751.37;4423192;31;20093;-68
2022/10/22 02:42:18;;;;;;;13.32;6.68;;;;;;;8.28;100.00;98743.66;4500372;31;20134;-69
2022/10/22 02:44:45;;;;;;;11.10;6.25;;;;;;;8.25;100.00;98749.13;4500353;31;20126;-69
2022/10/22 02:47:12;;;;;;;12.20;6.47;;;;;;;8.22;100.00;98759.81;4500251;31;20133;-68
2022/10/22 02:49:39;;;;;;;12.85;6.20;;;;;;;8.16;100.00;98765.50;4500190;31;20503;-69
2022/10/22 02:52:06;;;;;;;10.10;5.90;;;;;;;8.15;100.00;98769.09;4500210;31;20155;-68
2022/10/22 02:54:33;;;;;;;12.07;6.18;;;;;;;8.13;100.00;98755.31;4500073;31;20118;-68
2022/10/22 02:57:01;;;;;;;13.30;6.28;;;;;;;8.07;100.00;98761.00;4500238;31;20100;-69
2022/10/22 02:59:28;;;;;;;15.57;5.95;;;;;;;7.98;100.00;98757.38;4500019;31;20139;-68
2022/10/22 03:01:55;;;;;;;10.60;6.03;;;;;;;7.90;100.00;98750.16;4501525;31;20109;-68
2022/10/22 03:04:22;;;;;;;10.10;5.57;;;;;;;7.90;100.00;98754.53;4490146;31;20398;-68
2022/10/22 03:06:49;;;;;;;9.82;5.72;;;;;;;7.92;100.00;98755.25;4487103;31;20119;-68
2022/10/22 03:09:16;;;;;;;13.40;5.43;;;;;;;7.92;100.00;98748.25;4502143;31;20104;-69
2022/10/22 03:11:50;;;;;;;8.10;5.03;;;;;;;7.93;100.00;98739.47;4502000;31;20152;-68
2022/10/22 03:14:17;;;;;;;13.10;5.78;;;;;;;7.96;100.00;98733.16;4502011;31;20425;-69
2022/10/22 03:16:44;;;;;;;9.77;5.43;;;;;;;8.02;100.00;98730.06;4500904;31;20138;-68
2022/10/22 03:19:11;;;;;;;11.80;5.80;;;;;;;8.06;99.49;98731.50;4502181;31;20122;-69
2022/10/22 03:21:46;;;;;;;11.02;5.87;;;;;;;8.10;99.14;98724.25;4501962;31;20084;-68
2022/10/22 03:24:23;;;;;;;11.50;6.25;;;;;;;8.18;98.68;98716.66;4500753;31;20479;-69
2022/10/22 03:26:51;;;;;;;14.27;6.07;;;;;;;8.12;99.27;98711.91;4501702;31;20156;-68
2022/10/22 03:29:21;;;;;;;11.25;5.78;;;;;;;8.15;98.80;98717.72;4500700;31;20508;-68
2022/10/22 03:31:48;;;;;;;12.07;6.32;;;;;;;8.17;98.54;98717.59;4500520;31;20087;-68
2022/10/22 03:34:15;;;;;;;10.82;6.22;;;;;;;8.19;98.98;98726.16;4501964;31;20517;-69
2022/10/22 03:36:42;;;;;;;11.10;6.35;;;;;;;8.15;99.45;98732.56;4501955;31;20607;-68
2022/10/22 03:39:12;;;;;;;13.10;5.78;;;;;;;8.10;99.80;98726.84;4500522;31;20122;-68
2022/10/22 03:41:39;;;;;;;12.27;5.87;;;;;;;8.11;99.89;98733.75;4500407;31;20122;-68
2022/10/22 03:44:06;;;;;;;11.35;6.28;;;;;;;8.12;99.41;98731.00;4501783;31;20516;-69
2022/10/22 03:46:33;;;;;;;8.90;5.37;;;;;;;8.10;99.78;98714.66;4501820;31;20156;-68
2022/10/22 03:49:00;;;;;;;14.13;6.22;;;;;;;8.07;100.00;98693.19;4501724;31;20147;-68
2022/10/22 03:51:28;;;;;;;11.25;5.57;;;;;;;8.05;100.00;98687.25;4501689;31;20096;-69
2022/10/22 03:53:55;;;;;;;9.75;5.78;;;;;;;7.98;100.00;98692.97;4501715;31;20087;-68
2022/10/22 03:56:22;;;;;;;12.30;6.37;;;;;;;7.89;100.00;98704.16;4501607;31;20122;-68
2022/10/22 03:58:50;;;;;;;10.70;6.03;;;;;;;7.92;100.00;98705.69;4501548;31;20112;-68
2022/10/22 04:01:17;;;;;;;11.65;5.95;;;;;;;7.92;100.00;98716.12;4501257;31;20103;-68
2022/10/22 04:03:44;;;;;;;15.85;5.68;;;;;;;7.91;100.00;98720.50;4493781;31;20125;-68
2022/10/22 04:06:12;;;;;;;12.98;6.28;;;;;;;7.94;100.00;98720.25;4485834;31;20148;-68
2022/10/22 04:08:40;;;;;;;11.20;5.80;;;;;;;7.88;100.00;98715.53;4498557;31;20137;-68
2022/10/22 04:11:08;;;;;;;12.85;6.12;;;;;;;7.91;100.00;98723.09;4501238;31;20474;-68
2022/10/22 04:13:36;;;;;;;12.73;5.65;;;;;;;7.91;100.00;98712.66;4501025;31;20484;-68
2022/10/22 04:16:11;;;;;;;13.25;6.15;;;;;;;7.98;99.38;98720.84;4501375;31;20100;-68
2022/10/22 04:18:39;;;;;;;13.75;6.30;;;;;;;8.00;99.25;98717.16;4501661;31;20540;-68
2022/10/22 04:21:07;;;;;;;14.70;5.60;;;;;;;8.02;99.22;98724.84;4501448;31;20088;-68
2022/10/22 04:23:35;;;;;;;14.87;5.90;;;;;;;7.99;99.28;98728.56;4501587;31;20175;-68
2022/10/22 04:26:05;;;;;;;9.93;5.68;;;;;;;8.02;98.68;98726.66;4501367;31;20640;-69
2022/10/22 04:28:33;;;;;;;12.20;5.65;;;;;;;8.00;98.68;98724.97;4501551;31;20125;-69
2022/10/22 04:31:05;;;;;;;9.77;5.45;;;;;;;7.97;99.12;98713.97;4501701;31;20170;-68
2022/10/22 04:33:32;;;;;;;12.68;6.05;;;;;;;7.99;98.89;98712.91;4500332;31;20196;-68
2022/10/22 04:35:59;;;;;;;10.07;5.90;;;;;;;7.96;98.92;98707.94;4501464;31;20472;-68
2022/10/22 04:38:26;;;;;;;10.90;6.10;;;;;;;7.96;98.93;98712.31;4501550;31;20129;-68
2022/10/22 04:40:54;;;;;;;10.82;6.00;;;;;;;7.98;98.55;98713.03;4501331;31;20117;-68
2022/10/22 04:43:21;;;;;;;10.52;5.93;;;;;;;7.94;98.81;98715.03;4501453;31;20775;-69
2022/10/22 04:45:48;;;;;;;8.70;5.70;;;;;;;7.95;98.73;98719.31;4501445;31;20152;-68
2022/10/22 04:48:15;;;;;;;8.20;5.03;;;;;;;7.98;98.50;98716.47;4501457;31;20100;-68
2022/10/22 04:50:42;;;;;;;9.65;5.50;;;;;;;7.99;98.54;98718.13;4501585;31;20159;-69
2022/10/22 04:53:09;;;;;;;10.30;5.82;;;;;;;7.92;98.66;98700.47;4501321;31;20422;-68
2022/10/22 04:55:37;;;;;;;12.23;5.62;;;;;;;7.90;99.15;98704.97;4501654;31;20565;-68
2022/10/22 04:58:04;;;;;;;15.70;5.45;;;;;;;7.96;99.12;98707.09;4501306;31;20096;-68
2022/10/22 05:00:31;;;;;;;12.57;6.00;;;;;;;7.96;99.09;98713.16;4501284;31;20106;-68
2022/10/22 05:02:58;;;;;;;21.85;6.00;;;;;;;7.91;99.56;98710.06;4498201;31;20481;-69
2022/10/22 05:05:25;;;;;;;12.45;6.03;;;;;;;7.93;99.58;98712.53;4485532;31;20120;-69
2022/10/22 05:07:52;;;;;;;13.25;6.22;;;;;;;7.90;99.93;98712.78;4493307;31;20479;-68
2022/10/22 05:10:19;;;;;;;11.23;6.37;;;;;;;7.82;100.00;98710.78;4501323;31;20114;-68
2022/10/22 05:12:46;;;;;;;11.30;6.30;;;;;;;7.76;100.00;98708.66;4501148;31;20130;-68
2022/10/22 05:15:13;;;;;;;13.07;6.18;;;;;;;7.72;100.00;98700.28;4501269;31;20163;-68
2022/10/22 05:17:41;;;;;;;11.43;6.32;;;;;;;7.75;100.00;98704.41;4501293;31;20157;-68
2022/10/22 05:20:09;;;;;;;11.45;6.18;;;;;;;7.75;100.00;98704.41;4501113;31;20099;-68
2022/10/22 05:22:36;;;;;;;14.48;6.53;;;;;;;7.81;99.93;98706.50;4500838;31;20155;-68
2022/10/22 05:25:03;;;;;;;12.27;6.43;;;;;;;7.85;99.50;98710.56;4501336;31;20088;-68
2022/10/22 05:27:30;;;;;;;23.00;6.95;;;;;;;7.90;99.13;98713.63;4501056;31;20442;-68
2022/10/22 05:29:57;;;;;;;11.73;5.65;;;;;;;7.99;98.42;98712.91;4501187;31;20175;-68
2022/10/22 05:32:25;;;;;;;13.18;6.20;;;;;;;7.98;98.49;98710.41;4501157;31;20824;-68
2022/10/22 05:34:52;;;;;;;9.95;6.35;;;;;;;7.98;98.33;98719.06;4501047;31;20572;-69
2022/10/22 05:37:19;;;;;;;13.52;7.45;;;;;;;8.03;98.30;98718.69;4500992;31;20100;-68
2022/10/22 05:39:46;;;;;;;13.27;6.03;;;;;;;8.08;97.89;98707.88;4501091;31;20119;-69
2022/10/22 05:42:13;;;;;;;15.63;6.40;;;;;;;8.06;97.73;98704.59;4500942;31;20428;-68
2022/10/22 05:44:40;;;;;;;16.10;6.18;;;;;;;8.09;97.79;98696.50;4500895;31;20165;-68
2022/10/22 05:47:08;;;;;;;9.82;5.60;;;;;;;8.14;97.30;98694.34;4501169;31;20480;-68
2022/10/22 05:49:35;;;;;;;12.20;6.20;;;;;;;8.18;97.10;98712.25;4500887;31;20456;-69
2022/10/22 05:52:02;;;;;;;11.05;5.68;;;;;;;8.20;97.15;98724.34;4501034;31;20087;-68
2022/10/22 05:54:30;;;;;;;11.55;6.00;;;;;;;8.28;96.80;98721.94;4500686;31;20159;-69
2022/10/22 05:56:57;;;;;;;9.45;6.15;;;;;;;8.27;96.78;98720.31;4495669;31;157418;-68
2022/10/22 05:59:24;;;;;;;10.20;5.95;;;;;;;8.32;96.48;98720.75;4500761;31;20093;-69
2022/10/22 06:01:51;;;;;;;13.77;8.07;;;;;;;8.34;96.18;98711.00;4500437;31;20159;-68
2022/10/22 06:04:18;;;;;;;14.85;6.72;;;;;;;8.42;95.55;98728.66;4489145;31;20104;-68
2022/10/22 06:06:50;;;;;;;16.85;6.87;;;;;;;8.49;95.26;98745.50;4485256;31;20088;-68
2022/10/22 06:09:24;;;;;;;13.38;6.03;;;;;;;8.57;95.07;98743.13;4499250;31;20184;-68
2022/10/22 06:11:51;;;;;;;8.13;5.53;;;;;;;8.60;94.89;98739.41;4500792;31;20140;-68
2022/10/22 06:14:19;;;;;;;20.55;7.20;;;;;;;8.69;94.32;98754.31;4500521;31;20461;-68
2022/10/22 06:16:46;;;;;;;14.05;6.40;;;;;;;8.75;93.97;98750.41;4500723;31;20087;-69
2022/10/22 06:19:16;;;;;;;10.43;6.00;;;;;;;8.77;94.07;98744.09;4500354;31;20104;-69
2022/10/22 06:21:43;;;;;;;13.85;6.35;;;;;;;8.91;93.53;98756.00;4500552;31;20586;-69
2022/10/22 06:24:11;;;;;;;16.60;6.30;;;;;;;8.95;92.86;98746.97;4500379;31;20720;-69
2022/10/22 06:26:38;;;;;;;13.75;6.47;;;;;;;8.99;92.36;98750.16;4500573;31;20544;-69
2022/10/22 06:29:06;;;;;;;10.93;6.30;;;;;;;9.04;92.75;98743.59;4500547;31;20123;-69
2022/10/22 06:31:35;;;;;;;13.13;6.37;;;;;;;9.23;91.79;98734.22;4500615;31;20088;-69
2022/10/22 06:34:04;;;;;;;15.15;6.57;;;;;;;9.26;91.59;98733.13;4500569;31;20439;-69
2022/10/22 06:36:31;;;;;;;13.90;6.55;;;;;;;9.40;91.73;98746.69;4500091;31;20174;-69
2022/10/22 06:38:59;;;;;;;14.30;5.97;;;;;;;9.61;90.14;98750.22;4500461;31;20088;-69
2022/10/22 06:41:26;;;;;;;11.70;5.70;;;;;;;9.79;90.26;98756.47;4500934;31;20143;-69
2022/10/22 06:43:56;;;;;;;18.77;6.68;;;;;;;10.04;88.70;98759.59;4500869;31;20503;-69
2022/10/22 06:46:24;;;;;;;10.85;6.30;;;;;;;10.32;87.46;98768.47;4500609;31;20488;-69
2022/10/22 06:48:58;;;;;;;15.05;6.35;;;;;;;10.55;85.65;98763.00;4500404;31;20100;-69
2022/10/22 06:51:26;;;;;;;13.90;6.62;;;;;;;10.81;83.26;98753.63;4500205;31;20147;-69
2022/10/22 06:53:54;;;;;;;12.18;6.57;;;;;;;10.78;82.92;98767.00;4500313;31;20115;-69
2022/10/22 06:56:24;;;;;;;15.82;7.30;;;;;;;10.94;82.91;98757.75;4500129;31;20188;-69
2022/10/22 06:58:52;;;;;;;23.87;6.70;;;;;;;11.03;83.37;98756.91;4500019;31;20170;-69
2022/10/22 07:01:25;;;;;;;17.20;6.95;;;;;;;11.17;82.46;98774.84;4499633;31;20478;-69
2022/10/22 07:03:53;;;;;;;15.10;6.60;;;;;;;11.45;81.52;98774.91;4491319;31;20139;-69
2022/10/22 07:06:22;;;;;;;14.10;6.70;;;;;;;11.38;79.82;98767.75;4484637;31;20607;-69
2022/10/22 07:08:49;;;;;;;12.93;7.70;;;;;;;11.26;79.46;98748.72;4497791;31;20150;-69
2022/10/22 07:11:19;;;;;;;15.90;6.95;;;;;;;11.26;81.32;98753.97;4500003;31;20503;-69
2022/10/22 07:13:47;;;;;;;16.00;7.15;;;;;;;11.28;80.82;98749.41;4500115;31;20148;-69
2022/10/22 07:16:14;;;;;;;11.23;7.10;;;;;;;11.11;82.10;98746.56;4500113;31;20159;-69
2022/10/22 07:18:43;;;;;;;15.93;7.25;;;;;;;10.94;81.92;98753.34;4499828;31;20491;-69
2022/10/22 07:21:11;;;;;;;13.77;7.18;;;;;;;10.99;83.21;98745.03;4499632;31;20524;-69
2022/10/22 07:23:38;;;;;;;17.80;7.30;;;;;;;10.86;84.30;98749.78;4499891;31;20550;-68
2022/10/22 07:26:07;;;;;;;17.30;6.85;;;;;;;10.87;85.18;98752.25;4499690;31;20116;-69
2022/10/22 07:28:36;;;;;;;17.23;7.10;;;;;;;10.73;84.07;98757.91;4491203;31;20104;-69
2022/10/22 07:31:04;;;;;;;14.18;6.65;;;;;;;10.88;84.46;98763.56;4494723;31;20125;-69
2022/10/22 07:33:31;;;;;;;22.23;7.40;;;;;;;10.86;84.26;98760.25;4499560;31;20163;-69
2022/10/22 07:36:00;;;;;;;17.02;8.38;;;;;;;10.83;83.61;98766.59;4499600;31;20092;-69
2022/10/22 07:38:28;;;;;;;16.23;7.60;;;;;;;10.94;84.59;98760.38;4499686;31;20484;-69
2022/10/22 07:40:55;;;;;;;14.70;6.97;;;;;;;10.99;83.71;98750.28;4499370;31;20160;-69
2022/10/22 07:43:22;;;;;;;15.65;7.93;;;;;;;11.04;83.40;98742.00;4499500;31;20513;-69
2022/10/22 07:45:49;;;;;;;17.02;7.62;;;;;;;11.06;83.85;98740.91;4499334;31;20118;-69
2022/10/22 07:48:17;;;;;;;11.82;6.75;;;;;;;11.28;82.54;98750.25;4502002;31;20408;-69
2022/10/22 07:50:44;;;;;;;15.85;7.80;;;;;;;11.43;83.64;98755.03;4501897;31;20222;-69
2022/10/22 07:53:16;;;;;;;16.08;8.18;;;;;;;11.69;83.88;98752.59;4501805;31;20080;-69
2022/10/22 07:55:43;;;;;;;14.60;7.62;;;;;;;11.66;83.17;98756.34;4501559;31;20119;-69
2022/10/22 07:58:10;;;;;;;23.85;9.05;;;;;;;12.04;82.96;98766.84;4487108;31;20478;-69
2022/10/22 08:00:37;;;;;;;22.90;8.48;;;;;;;12.37;78.77;98757.50;4501543;31;20114;-69
2022/10/22 08:03:04;;;;;;;22.85;8.73;;;;;;;12.36;77.70;98760.28;4498083;31;20109;-69
2022/10/22 08:05:31;;;;;;;15.25;7.93;;;;;;;12.53;79.15;98769.16;4485823;32;20175;-69
2022/10/22 08:07:58;;;;;;;23.92;8.80;;;;;;;12.65;77.77;98765.31;4494156;31;20107;-69
2022/10/22 08:10:25;;;;;;;22.77;9.35;;;;;;;13.08;79.28;98765.50;4501624;31;20116;-69
2022/10/22 08:12:52;;;;;;;18.08;8.95;;;;;;;13.48;75.59;98766.78;4501554;31;20142;-69
2022/10/22 08:15:22;;;;;;;14.90;9.18;;;;;;;14.01;75.57;98762.25;4501596;31;20991;-69
2022/10/22 08:17:49;;;;;;;23.80;8.43;;;;;;;14.00;72.11;98768.50;4501453;31;20139;-69
2022/10/22 08:20:17;;;;;;;20.37;9.82;;;;;;;14.34;73.77;98767.63;4501333;31;20118;-69
2022/10/22 08:22:44;;;;;;;21.73;8.85;;;;;;;14.82;72.79;98759.97;4501444;31;20474;-69
2022/10/22 08:25:11;;;;;;;13.70;8.85;;;;;;;14.99;73.49;98758.97;4501315;31;20096;-69
2022/10/22 08:27:38;;;;;;;19.50;10.65;;;;;;;15.06;72.10;98757.34;4501404;31;20095;-69
2022/10/22 08:30:06;;;;;;;16.33;9.35;;;;;;;15.21;68.76;98767.19;4501249;31;20101;-69
2022/10/22 08:32:34;;;;;;;15.10;8.95;;;;;;;15.23;71.55;98775.78;4501445;31;20088;-69
2022/10/22 08:35:01;;;;;;;16.15;9.05;;;;;;;14.90;70.32;98767.91;4501369;31;20145;-69
2022/10/22 08:37:28;;;;;;;22.70;9.48;;;;;;;14.61;71.21;98771.84;4501186;31;20091;-69
2022/10/22 08:39:55;;;;;;;13.98;8.82;;;;;;;14.49;75.03;98773.09;4501380;31;20096;-69
2022/10/22 08:42:34;;;;;;;17.65;9.05;;;;;;;14.54;73.96;98770.78;4501230;31;20096;-69
2022/10/22 08:45:23;;;;;;;21.40;9.82;;;;;;;14.58;72.94;98772.13;4501393;31;20114;-69
2022/10/22 08:47:58;;;;;;;16.52;9.07;;;;;;;14.35;71.46;98780.66;4499967;31;20163;-69
2022/10/22 08:50:33;;;;;;;17.20;9.77;;;;;;;14.04;73.00;98783.00;4501397;31;20080;-69
2022/10/22 08:53:05;;;;;;;18.55;9.95;;;;;;;13.88;76.83;98785.56;4499975;31;20108;-69
2022/10/22 08:55:35;;;;;;;24.80;10.15;;;;;;;13.90;76.76;98781.81;4499941;31;20473;-69
2022/10/22 08:58:30;;;;;;;16.90;10.52;;;;;;;13.90;74.16;98773.91;4499060;31;20080;-69
2022/10/22 09:00:59;;;;;;;21.70;10.73;;;;;;;14.07;73.23;98771.34;4500691;31;20104;-69
2022/10/22 09:03:45;;;;;;;18.33;10.25;;;;;;;13.81;74.53;98790.66;4493952;31;20125;-69
2022/10/22 09:06:14;;;;;;;18.83;10.73;;;;;;;13.81;73.64;98794.09;4484205;32;20109;-69
2022/10/22 09:08:42;;;;;;;23.77;10.70;;;;;;;13.89;76.91;98790.69;4484178;32;20163;-69
2022/10/22 09:11:09;;;;;;;23.08;10.98;;;;;;;14.00;75.10;98777.25;4484046;32;20445;-69
2022/10/22 09:13:39;;;;;;;24.30;11.02;;;;;;;14.13;75.12;98770.69;4485212;32;20466;-69
2022/10/22 09:16:17;;;;;;;18.12;10.73;;;;;;;14.21;73.58;98762.81;4485238;31;20390;-69
2022/10/22 09:18:47;;;;;;;18.12;10.32;;;;;;;14.34;75.68;98772.91;4485530;31;20092;-69
2022/10/22 09:21:36;;;;;;;19.67;10.85;;;;;;;14.44;75.19;98767.47;4485080;31;20116;-69
2022/10/22 09:24:10;;;;;;;22.52;11.07;;;;;;;14.49;74.83;98768.66;4485480;31;20489;-69
2022/10/22 09:26:39;;;;;;;16.75;9.80;;;;;;;14.52;72.21;98775.41;4483895;32;20096;-69
2022/10/22 09:29:22;;;;;;;28.30;11.57;;;;;;;14.60;73.38;98785.16;4485239;31;20192;-69
2022/10/22 09:31:49;;;;;;;21.35;10.68;;;;;;;14.61;74.47;98787.66;4483813;32;20169;-69
2022/10/22 09:34:20;;;;;;;24.52;11.48;;;;;;;14.48;74.41;98789.91;4485331;31;20116;-69
2022/10/22 09:36:47;;;;;;;21.02;11.48;;;;;;;14.16;76.98;98796.72;4485150;31;20107;-69
2022/10/22 09:39:23;;;;;;;20.17;11.50;;;;;;;14.12;77.27;98790.13;4483837;32;20175;-69
2022/10/22 09:41:50;;;;;;;15.98;11.02;;;;;;;14.08;76.22;98794.91;4485055;31;20103;-69
2022/10/22 09:44:19;;;;;;;22.70;11.60;;;;;;;14.16;77.31;98802.00;4485165;31;20385;-69
2022/10/22 09:46:46;;;;;;;28.27;11.75;;;;;;;14.17;76.21;98803.63;4485035;31;20119;-69
2022/10/22 09:49:16;;;;;;;22.00;11.32;;;;;;;14.44;76.08;98783.28;4485162;31;20103;-69
2022/10/22 09:51:54;;;;;;;30.12;11.60;;;;;;;14.66;76.54;98780.06;4485345;31;20084;-69
2022/10/22 09:54:37;;;;;;;23.90;10.68;;;;;;;14.80;75.57;98772.50;4485127;31;20590;-69
2022/10/22 09:57:15;;;;;;;26.02;13.18;;;;;;;15.06;75.30;98780.25;4485006;31;20152;-69
2022/10/22 09:59:44;;;;;;;23.40;12.25;;;;;;;15.01;74.31;98779.94;4485010;31;20210;-69
2022/10/22 10:02:14;;;;;;;22.17;12.88;;;;;;;15.18;75.14;98786.00;4484699;31;20088;-70
2022/10/22 10:04:54;;;;;;;24.48;13.48;;;;;;;15.30;75.67;98784.69;4484796;31;20453;-69
2022/10/22 10:07:29;;;;;;;24.95;12.37;;;;;;;15.37;72.88;98779.56;4489125;31;20122;-69
2022/10/22 10:09:56;;;;;;;25.30;12.07;;;;;;;15.40;74.51;98780.03;4500762;31;20075;-69
2022/10/22 10:12:40;;;;;;;27.00;10.85;;;;;;;15.32;72.73;98758.13;4500533;31;20076;-69
2022/10/22 10:15:19;;;;;;;24.33;11.85;;;;;;;15.35;72.09;98763.91;4499573;31;20144;-69
2022/10/22 10:17:55;;;;;;;23.02;12.05;;;;;;;15.27;72.84;98758.63;4499441;31;20123;-69
2022/10/22 10:20:39;;;;;;;25.67;13.15;;;;;;;15.43;73.85;98763.06;4500728;31;20179;-69
2022/10/22 10:23:51;;;;;;;23.75;13.55;;;;;;;15.31;73.41;98774.97;4499337;31;20135;-69
2022/10/22 10:26:41;;;;;;;24.58;13.68;;;;;;;15.14;73.48;98776.78;4450761;32;20101;-69
2022/10/22 10:29:17;;;;;;;22.85;14.20;;;;;;;15.07;78.29;98771.34;4450749;32;20101;-69
2022/10/22 10:31:56;;;;;;;26.77;14.20;;;;;;;15.07;77.36;98768.72;4451018;32;20520;-69
2022/10/22 10:34:44;;;;;;;24.75;13.88;;;;;;;15.15;78.94;98762.59;4451002;32;20120;-69
2022/10/22 10:37:35;;;;;;;32.20;13.20;;;;;;;15.10;77.24;98770.19;4438326;32;20605;-69
2022/10/22 10:40:23;;;;;;;24.42;12.80;;;;;;;15.18;76.00;98767.53;4438050;32;20159;-69
2022/10/22 10:42:58;;;;;;;22.75;11.90;;;;;;;15.43;77.00;98769.16;4450615;32;20093;-69
2022/10/22 10:45:34;;;;;;;34.22;13.10;;;;;;;15.27;78.16;98783.19;4450746;32;20183;-69
2022/10/22 10:48:24;;;;;;;29.48;14.48;;;;;;;15.26;77.08;98793.91;4450543;32;20231;-69
2022/10/22 10:50:59;;;;;;;23.73;12.25;;;;;;;15.15;77.83;98794.25;4444806;32;20123;-69
2022/10/22 10:53:51;;;;;;;27.90;13.48;;;;;;;15.12;81.81;98799.88;4450836;32;20118;-69
2022/10/22 10:56:42;;;;;;;28.98;12.75;;;;;;;14.99;79.52;98792.44;4450428;32;20127;-69
2022/10/22 10:59:37;;;;;;;25.20;12.60;;;;;;;14.73;82.44;98794.25;4450492;32;20830;-69
2022/10/22 11:02:33;;;;;;;23.15;12.43;;;;;;;14.99;81.28;98795.91;4476277;31;20148;-69
2022/10/22 11:05:34;;;;;;;27.37;11.93;;;;;;;14.94;79.50;98794.75;4496367;31;20097;-69
2022/10/22 11:08:07;;;;;;;31.23;13.70;;;;;;;15.04;79.94;98790.97;4492586;31;20112;-69
2022/10/22 11:10:45;;;;;;;27.77;14.13;;;;;;;14.96;79.43;98777.78;4499995;31;20149;-69
2022/10/22 11:13:24;;;;;;;22.48;12.40;;;;;;;14.81;80.10;98771.53;4498634;31;20211;-69
2022/10/22 11:16:02;;;;;;;26.65;12.27;;;;;;;14.80;82.27;98775.13;4498582;31;20154;-69
2022/10/22 11:18:39;;;;;;;27.13;13.40;;;;;;;14.90;80.42;98773.16;4499814;31;20144;-69
2022/10/22 11:21:14;;;;;;;25.55;12.32;;;;;;;15.11;82.99;98761.28;4499041;31;20092;-69
2022/10/22 11:23:55;;;;;;;19.48;11.70;;;;;;;15.41;79.10;98767.66;4501899;31;20102;-69
2022/10/22 11:26:34;;;;;;;22.35;12.93;;;;;;;15.59;77.84;98768.31;4501771;31;20083;-69
2022/10/22 11:29:04;;;;;;;29.33;13.82;;;;;;;15.48;80.17;98760.72;4501671;31;20628;-69
2022/10/22 11:31:32;;;;;;;29.60;14.77;;;;;;;15.74;80.02;98760.47;4500433;31;20140;-69
2022/10/22 11:34:04;;;;;;;27.58;14.30;;;;;;;15.83;78.22;98760.50;4500623;31;20099;-69
2022/10/22 11:36:53;;;;;;;28.70;14.57;;;;;;;16.14;77.40;98763.16;4501905;31;20136;-69
2022/10/22 11:39:34;;;;;;;46.40;20.77;;;;;;;16.16;74.19;98758.50;4500490;31;20156;-69
2022/10/22 11:42:08;;;;;;;52.25;20.00;;;;;;;16.20;74.49;98757.19;4500509;31;20155;-69
2022/10/22 11:45:04;;;;;;;;;;;;;;;16.22;77.13;98752.53;4502075;31;20122;-69
2022/10/22 11:47:34;;;;;;;45.47;19.83;;;;;;;16.27;75.31;98755.47;4436794;32;20015;-69